sensor_id;sensor_type;location;lat;lon;timestamp;pressure;altitude;pressure_sealevel;temperature;humidity
79138;BME280;68544;45.566;10.238;2024-01-30T00:01:18;101730.16;;;5.65;62.94
79138;BME280;68544;45.566;10.238;2024-01-30T00:03:43;101737.38;;;5.88;62.20
79138;BME280;68544;45.566;10.238;2024-01-30T00:06:09;101738.13;;;5.90;61.94
79138;BME280;68544;45.566;10.238;2024-01-30T00:08:34;101737.00;;;5.69;63.00
79138;BME280;68544;45.566;10.238;2024-01-30T00:10:59;101725.91;;;5.86;62.41
79138;BME280;68544;45.566;10.238;2024-01-30T00:13:26;101718.88;;;5.96;61.04
79138;BME280;68544;45.566;10.238;2024-01-30T00:15:52;101731.63;;;5.69;62.03
79138;BME280;68544;45.566;10.238;2024-01-30T00:18:17;101732.44;;;5.82;61.24
79138;BME280;68544;45.566;10.238;2024-01-30T00:20:44;101730.94;;;5.54;61.56
79138;BME280;68544;45.566;10.238;2024-01-30T00:23:09;101734.34;;;5.33;63.51
79138;BME280;68544;45.566;10.238;2024-01-30T00:25:34;101714.06;;;4.93;65.06
79138;BME280;68544;45.566;10.238;2024-01-30T00:28:00;101732.28;;;4.88;66.83
79138;BME280;68544;45.566;10.238;2024-01-30T00:30:25;101732.94;;;5.40;64.77
79138;BME280;68544;45.566;10.238;2024-01-30T00:32:50;101689.84;;;5.43;63.60
79138;BME280;68544;45.566;10.238;2024-01-30T00:35:16;101725.19;;;5.84;62.62
79138;BME280;68544;45.566;10.238;2024-01-30T00:37:41;101711.63;;;5.62;61.50
79138;BME280;68544;45.566;10.238;2024-01-30T00:40:07;101722.56;;;5.59;61.15
79138;BME280;68544;45.566;10.238;2024-01-30T00:42:33;101719.38;;;5.78;60.53
79138;BME280;68544;45.566;10.238;2024-01-30T00:44:58;101719.13;;;5.81;60.17
79138;BME280;68544;45.566;10.238;2024-01-30T00:47:23;101728.44;;;5.64;60.15
79138;BME280;68544;45.566;10.238;2024-01-30T00:49:49;101723.47;;;5.71;60.20
79138;BME280;68544;45.566;10.238;2024-01-30T00:52:14;101714.53;;;5.59;60.92
79138;BME280;68544;45.566;10.238;2024-01-30T00:54:40;101730.47;;;5.37;61.91
79138;BME280;68544;45.566;10.238;2024-01-30T00:57:06;101729.53;;;5.25;63.11
79138;BME280;68544;45.566;10.238;2024-01-30T00:59:31;101727.75;;;5.01;64.51
79138;BME280;68544;45.566;10.238;2024-01-30T01:01:56;101732.63;;;5.32;63.44
79138;BME280;68544;45.566;10.238;2024-01-30T01:04:22;101732.19;;;5.38;62.95
79138;BME280;68544;45.566;10.238;2024-01-30T01:06:47;101730.22;;;5.52;62.06
79138;BME280;68544;45.566;10.238;2024-01-30T01:09:12;101730.28;;;5.87;60.85
79138;BME280;68544;45.566;10.238;2024-01-30T01:11:38;101724.84;;;6.00;59.37
79138;BME280;68544;45.566;10.238;2024-01-30T01:14:04;101725.72;;;6.00;58.92
79138;BME280;68544;45.566;10.238;2024-01-30T01:16:29;101723.75;;;5.79;59.51
79138;BME280;68544;45.566;10.238;2024-01-30T01:18:55;101720.34;;;5.53;60.14
79138;BME280;68544;45.566;10.238;2024-01-30T01:21:20;101719.75;;;5.37;60.77
79138;BME280;68544;45.566;10.238;2024-01-30T01:23:45;101726.50;;;4.94;63.18
79138;BME280;68544;45.566;10.238;2024-01-30T01:26:11;101727.75;;;5.01;63.31
79138;BME280;68544;45.566;10.238;2024-01-30T01:28:36;101724.63;;;5.19;63.88
79138;BME280;68544;45.566;10.238;2024-01-30T01:31:01;101726.84;;;4.76;64.94
79138;BME280;68544;45.566;10.238;2024-01-30T01:33:31;101729.28;;;5.05;64.56
79138;BME280;68544;45.566;10.238;2024-01-30T01:35:58;101725.81;;;5.03;64.81
79138;BME280;68544;45.566;10.238;2024-01-30T01:38:23;101725.38;;;5.21;64.06
79138;BME280;68544;45.566;10.238;2024-01-30T01:40:49;101725.09;;;5.37;63.02
79138;BME280;68544;45.566;10.238;2024-01-30T01:43:14;101721.63;;;5.47;62.36
79138;BME280;68544;45.566;10.238;2024-01-30T01:45:39;101714.53;;;5.59;61.81
79138;BME280;68544;45.566;10.238;2024-01-30T01:48:05;101715.34;;;5.48;62.12
79138;BME280;68544;45.566;10.238;2024-01-30T01:50:31;101717.81;;;5.39;62.46
79138;BME280;68544;45.566;10.238;2024-01-30T01:52:58;101714.47;;;5.48;62.42
79138;BME280;68544;45.566;10.238;2024-01-30T01:55:24;101715.41;;;5.23;62.40
79138;BME280;68544;45.566;10.238;2024-01-30T01:57:52;101715.50;;;5.22;62.75
79138;BME280;68544;45.566;10.238;2024-01-30T02:00:18;101713.06;;;5.55;62.09
79138;BME280;68544;45.566;10.238;2024-01-30T02:02:45;101709.91;;;5.61;61.26
79138;BME280;68544;45.566;10.238;2024-01-30T02:05:10;101713.69;;;5.22;63.10
79138;BME280;68544;45.566;10.238;2024-01-30T02:07:36;101714.91;;;5.06;64.46
79138;BME280;68544;45.566;10.238;2024-01-30T02:10:02;101712.81;;;4.98;65.25
79138;BME280;68544;45.566;10.238;2024-01-30T02:12:29;101708.00;;;4.78;65.55
79138;BME280;68544;45.566;10.238;2024-01-30T02:14:54;101704.03;;;4.84;66.00
79138;BME280;68544;45.566;10.238;2024-01-30T02:17:20;101700.19;;;5.24;64.35
79138;BME280;68544;45.566;10.238;2024-01-30T02:19:46;101668.84;;;4.77;64.73
79138;BME280;68544;45.566;10.238;2024-01-30T02:22:11;101703.06;;;4.85;65.57
79138;BME280;68544;45.566;10.238;2024-01-30T02:24:38;101694.16;;;4.84;65.29
79138;BME280;68544;45.566;10.238;2024-01-30T02:27:03;101708.91;;;5.15;65.39
79138;BME280;68544;45.566;10.238;2024-01-30T02:29:28;101709.94;;;5.25;64.44
79138;BME280;68544;45.566;10.238;2024-01-30T02:31:54;101696.75;;;5.22;63.19
79138;BME280;68544;45.566;10.238;2024-01-30T02:34:19;101696.84;;;5.33;63.07
79138;BME280;68544;45.566;10.238;2024-01-30T02:36:45;101704.22;;;5.42;62.46
79138;BME280;68544;45.566;10.238;2024-01-30T02:39:10;101711.88;;;5.23;62.81
79138;BME280;68544;45.566;10.238;2024-01-30T02:41:36;101708.56;;;5.19;62.95
79138;BME280;68544;45.566;10.238;2024-01-30T02:44:05;101699.47;;;5.09;63.33
79138;BME280;68544;45.566;10.238;2024-01-30T02:46:30;101707.44;;;4.98;63.72
79138;BME280;68544;45.566;10.238;2024-01-30T02:48:55;101703.47;;;5.04;63.59
79138;BME280;68544;45.566;10.238;2024-01-30T02:51:21;101701.97;;;5.00;63.82
79138;BME280;68544;45.566;10.238;2024-01-30T02:53:46;101696.09;;;4.95;63.81
79138;BME280;68544;45.566;10.238;2024-01-30T02:56:12;101698.06;;;5.16;63.48
79138;BME280;68544;45.566;10.238;2024-01-30T02:58:39;101702.81;;;5.13;63.57
79138;BME280;68544;45.566;10.238;2024-01-30T03:01:04;101699.84;;;5.05;63.32
79138;BME280;68544;45.566;10.238;2024-01-30T03:03:29;101696.31;;;4.92;63.88
79138;BME280;68544;45.566;10.238;2024-01-30T03:05:55;101700.47;;;4.96;63.95
79138;BME280;68544;45.566;10.238;2024-01-30T03:08:20;101699.50;;;4.97;64.04
79138;BME280;68544;45.566;10.238;2024-01-30T03:10:46;101695.63;;;5.01;63.78
79138;BME280;68544;45.566;10.238;2024-01-30T03:13:11;101683.03;;;4.77;65.01
79138;BME280;68544;45.566;10.238;2024-01-30T03:15:37;101701.72;;;5.03;64.10
79138;BME280;68544;45.566;10.238;2024-01-30T03:18:02;101679.91;;;5.09;63.24
79138;BME280;68544;45.566;10.238;2024-01-30T03:20:30;101693.41;;;4.95;64.10
79138;BME280;68544;45.566;10.238;2024-01-30T03:22:56;101679.88;;;4.72;65.02
79138;BME280;68544;45.566;10.238;2024-01-30T03:25:22;101694.09;;;4.73;65.80
79138;BME280;68544;45.566;10.238;2024-01-30T03:27:47;101684.38;;;4.47;66.99
79138;BME280;68544;45.566;10.238;2024-01-30T03:30:12;101687.72;;;4.99;65.33
79138;BME280;68544;45.566;10.238;2024-01-30T03:32:38;101692.66;;;4.93;64.12
79138;BME280;68544;45.566;10.238;2024-01-30T03:35:04;101683.25;;;5.00;64.00
79138;BME280;68544;45.566;10.238;2024-01-30T03:37:29;101691.19;;;4.76;64.05
79138;BME280;68544;45.566;10.238;2024-01-30T03:39:55;101675.47;;;4.59;64.89
79138;BME280;68544;45.566;10.238;2024-01-30T03:42:20;101684.94;;;5.01;64.25
79138;BME280;68544;45.566;10.238;2024-01-30T03:44:45;101658.91;;;4.54;64.46
79138;BME280;68544;45.566;10.238;2024-01-30T03:47:11;101681.03;;;4.81;64.17
79138;BME280;68544;45.566;10.238;2024-01-30T03:49:36;101692.47;;;4.96;63.59
79138;BME280;68544;45.566;10.238;2024-01-30T03:52:02;101690.81;;;5.06;62.76
79138;BME280;68544;45.566;10.238;2024-01-30T03:54:27;101692.56;;;4.94;63.73
79138;BME280;68544;45.566;10.238;2024-01-30T03:56:52;101689.59;;;4.73;64.21
79138;BME280;68544;45.566;10.238;2024-01-30T03:59:18;101689.78;;;4.96;64.22
79138;BME280;68544;45.566;10.238;2024-01-30T04:01:49;101685.59;;;5.04;63.81
79138;BME280;68544;45.566;10.238;2024-01-30T04:04:15;101713.44;;;4.89;64.21
79138;BME280;68544;45.566;10.238;2024-01-30T04:06:40;101690.69;;;4.71;64.70
79138;BME280;68544;45.566;10.238;2024-01-30T04:09:05;101682.41;;;4.87;64.87
79138;BME280;68544;45.566;10.238;2024-01-30T04:11:31;101692.25;;;4.73;65.29
79138;BME280;68544;45.566;10.238;2024-01-30T04:13:56;101688.16;;;4.93;64.51
79138;BME280;68544;45.566;10.238;2024-01-30T04:16:22;101692.56;;;4.94;64.67
79138;BME280;68544;45.566;10.238;2024-01-30T04:18:48;101685.59;;;5.04;63.61
79138;BME280;68544;45.566;10.238;2024-01-30T04:21:13;101688.38;;;4.90;63.16
79138;BME280;68544;45.566;10.238;2024-01-30T04:23:40;101679.53;;;4.90;63.06
79138;BME280;68544;45.566;10.238;2024-01-30T04:26:05;101680.72;;;4.86;63.07
79138;BME280;68544;45.566;10.238;2024-01-30T04:28:31;101674.81;;;4.80;63.13
79138;BME280;68544;45.566;10.238;2024-01-30T04:30:56;101679.59;;;4.88;63.33
79138;BME280;68544;45.566;10.238;2024-01-30T04:33:21;101683.00;;;5.03;62.78
79138;BME280;68544;45.566;10.238;2024-01-30T04:35:47;101689.69;;;4.85;63.61
79138;BME280;68544;45.566;10.238;2024-01-30T04:38:12;101681.34;;;4.76;63.93
79138;BME280;68544;45.566;10.238;2024-01-30T04:40:39;101677.06;;;4.87;63.25
79138;BME280;68544;45.566;10.238;2024-01-30T04:43:04;101674.91;;;4.92;63.62
79138;BME280;68544;45.566;10.238;2024-01-30T04:45:30;101675.56;;;4.82;63.72
79138;BME280;68544;45.566;10.238;2024-01-30T04:47:55;101677.06;;;4.87;63.64
79138;BME280;68544;45.566;10.238;2024-01-30T04:50:20;101675.13;;;4.89;63.48
79138;BME280;68544;45.566;10.238;2024-01-30T04:52:46;101681.34;;;4.89;63.46
79138;BME280;68544;45.566;10.238;2024-01-30T04:55:11;101674.59;;;5.20;62.43
79138;BME280;68544;45.566;10.238;2024-01-30T04:57:36;101682.31;;;4.75;63.64
79138;BME280;68544;45.566;10.238;2024-01-30T05:00:02;101677.22;;;4.47;64.91
79138;BME280;68544;45.566;10.238;2024-01-30T05:02:28;101675.91;;;4.40;66.22
79138;BME280;68544;45.566;10.238;2024-01-30T05:04:53;101680.06;;;4.19;67.47
79138;BME280;68544;45.566;10.238;2024-01-30T05:07:19;101660.75;;;4.28;67.48
79138;BME280;68544;45.566;10.238;2024-01-30T05:09:44;101667.69;;;4.06;68.24
79138;BME280;68544;45.566;10.238;2024-01-30T05:12:10;101673.47;;;4.25;68.07
79138;BME280;68544;45.566;10.238;2024-01-30T05:14:35;101677.28;;;4.08;68.79
79138;BME280;68544;45.566;10.238;2024-01-30T05:17:00;101664.75;;;3.83;69.17
79138;BME280;68544;45.566;10.238;2024-01-30T05:19:28;101678.16;;;4.21;68.42
79138;BME280;68544;45.566;10.238;2024-01-30T05:21:53;101670.88;;;4.23;67.75
79138;BME280;68544;45.566;10.238;2024-01-30T05:24:18;101678.38;;;4.31;67.41
79138;BME280;68544;45.566;10.238;2024-01-30T05:26:44;101682.97;;;4.16;68.77
79138;BME280;68544;45.566;10.238;2024-01-30T05:29:09;101680.50;;;4.13;68.53
79138;BME280;68544;45.566;10.238;2024-01-30T05:31:34;101683.75;;;4.43;68.11
79138;BME280;68544;45.566;10.238;2024-01-30T05:34:00;101679.53;;;4.77;65.86
79138;BME280;68544;45.566;10.238;2024-01-30T05:36:25;101671.41;;;4.16;67.13
79138;BME280;68544;45.566;10.238;2024-01-30T05:38:51;101679.22;;;4.56;66.47
79138;BME280;68544;45.566;10.238;2024-01-30T05:41:16;101634.19;;;4.25;66.12
79138;BME280;68544;45.566;10.238;2024-01-30T05:43:41;101685.22;;;4.47;65.88
79138;BME280;68544;45.566;10.238;2024-01-30T05:46:07;101682.88;;;4.55;65.56
79138;BME280;68544;45.566;10.238;2024-01-30T05:48:32;101687.47;;;4.66;64.89
79138;BME280;68544;45.566;10.238;2024-01-30T05:50:58;101681.38;;;4.51;65.31
79138;BME280;68544;45.566;10.238;2024-01-30T05:53:25;101689.72;;;4.59;65.45
79138;BME280;68544;45.566;10.238;2024-01-30T05:55:50;101686.50;;;4.29;66.68
79138;BME280;68544;45.566;10.238;2024-01-30T05:58:15;101680.94;;;4.32;66.50
79138;BME280;68544;45.566;10.238;2024-01-30T06:00:41;101693.44;;;4.19;68.11
79138;BME280;68544;45.566;10.238;2024-01-30T06:03:07;101683.94;;;4.53;67.05
79138;BME280;68544;45.566;10.238;2024-01-30T06:05:32;101690.34;;;4.50;66.70
79138;BME280;68544;45.566;10.238;2024-01-30T06:07:58;101683.72;;;4.18;67.89
79138;BME280;68544;45.566;10.238;2024-01-30T06:10:23;101695.16;;;4.20;68.12
79138;BME280;68544;45.566;10.238;2024-01-30T06:12:48;101691.19;;;4.26;68.18
79138;BME280;68544;45.566;10.238;2024-01-30T06:15:14;101676.03;;;4.26;67.70
79138;BME280;68544;45.566;10.238;2024-01-30T06:17:39;101692.06;;;4.51;67.01
79138;BME280;68544;45.566;10.238;2024-01-30T06:20:05;101695.38;;;4.55;66.50
79138;BME280;68544;45.566;10.238;2024-01-30T06:22:31;101698.06;;;4.42;66.72
79138;BME280;68544;45.566;10.238;2024-01-30T06:24:56;101691.53;;;4.21;67.13
79138;BME280;68544;45.566;10.238;2024-01-30T06:27:21;101683.63;;;4.32;67.04
79138;BME280;68544;45.566;10.238;2024-01-30T06:29:47;101691.84;;;4.42;66.83
79138;BME280;68544;45.566;10.238;2024-01-30T06:32:12;101695.19;;;4.33;67.13
79138;BME280;68544;45.566;10.238;2024-01-30T06:34:38;101698.38;;;4.50;66.83
79138;BME280;68544;45.566;10.238;2024-01-30T06:37:05;101696.13;;;4.19;67.38
79138;BME280;68544;45.566;10.238;2024-01-30T06:39:30;101705.50;;;3.99;69.45
79138;BME280;68544;45.566;10.238;2024-01-30T06:41:56;101697.97;;;3.79;70.81
79138;BME280;68544;45.566;10.238;2024-01-30T06:44:21;101706.16;;;4.03;70.54
79138;BME280;68544;45.566;10.238;2024-01-30T06:46:46;101700.91;;;4.02;70.43
79138;BME280;68544;45.566;10.238;2024-01-30T06:49:12;101704.00;;;4.08;69.86
79138;BME280;68544;45.566;10.238;2024-01-30T06:51:37;101700.56;;;3.93;70.74
79138;BME280;68544;45.566;10.238;2024-01-30T06:54:02;101708.69;;;3.92;71.28
79138;BME280;68544;45.566;10.238;2024-01-30T06:56:28;101707.84;;;4.04;71.43
79138;BME280;68544;45.566;10.238;2024-01-30T06:58:53;101711.72;;;4.13;70.51
79138;BME280;68544;45.566;10.238;2024-01-30T07:01:19;101682.06;;;3.90;70.67
79138;BME280;68544;45.566;10.238;2024-01-30T07:03:44;101706.25;;;3.89;70.66
79138;BME280;68544;45.566;10.238;2024-01-30T07:06:10;101717.13;;;3.86;70.63
79138;BME280;68544;45.566;10.238;2024-01-30T07:08:36;101712.13;;;4.07;69.66
79138;BME280;68544;45.566;10.238;2024-01-30T07:11:02;101715.22;;;4.00;69.69
79138;BME280;68544;45.566;10.238;2024-01-30T07:13:28;101708.97;;;4.39;68.80
79138;BME280;68544;45.566;10.238;2024-01-30T07:15:53;101711.22;;;4.70;66.93
79138;BME280;68544;45.566;10.238;2024-01-30T07:18:19;101709.81;;;4.65;66.59
79138;BME280;68544;45.566;10.238;2024-01-30T07:20:44;101703.19;;;4.70;66.59
79138;BME280;68544;45.566;10.238;2024-01-30T07:23:13;101706.38;;;4.88;65.22
79138;BME280;68544;45.566;10.238;2024-01-30T07:25:41;101704.34;;;4.92;65.11
79138;BME280;68544;45.566;10.238;2024-01-30T07:28:10;101716.22;;;5.00;64.56
79138;BME280;68544;45.566;10.238;2024-01-30T07:30:36;101715.13;;;4.90;64.91
79138;BME280;68544;45.566;10.238;2024-01-30T07:33:01;101720.47;;;5.03;64.16
79138;BME280;68544;45.566;10.238;2024-01-30T07:35:26;101716.59;;;5.19;63.52
79138;BME280;68544;45.566;10.238;2024-01-30T07:37:52;101714.34;;;5.13;63.35
79138;BME280;68544;45.566;10.238;2024-01-30T07:40:17;101707.53;;;4.97;63.74
79138;BME280;68544;45.566;10.238;2024-01-30T07:42:43;101719.06;;;5.10;63.73
79138;BME280;68544;45.566;10.238;2024-01-30T07:45:08;101721.44;;;5.14;63.63
79138;BME280;68544;45.566;10.238;2024-01-30T07:47:34;101705.94;;;5.07;63.54
79138;BME280;68544;45.566;10.238;2024-01-30T07:49:59;101720.88;;;5.09;63.90
79138;BME280;68544;45.566;10.238;2024-01-30T07:52:24;101716.63;;;5.43;62.74
79138;BME280;68544;45.566;10.238;2024-01-30T07:54:53;101714.28;;;5.62;61.99
79138;BME280;68544;45.566;10.238;2024-01-30T07:57:18;101708.16;;;5.96;60.94
79138;BME280;68544;45.566;10.238;2024-01-30T07:59:44;101717.78;;;6.33;59.53
79138;BME280;68544;45.566;10.238;2024-01-30T08:02:11;101707.81;;;6.47;59.31
79138;BME280;68544;45.566;10.238;2024-01-30T08:04:37;101724.69;;;6.82;57.71
79138;BME280;68544;45.566;10.238;2024-01-30T08:07:02;101715.91;;;7.02;56.38
79138;BME280;68544;45.566;10.238;2024-01-30T08:09:28;101728.09;;;7.28;55.52
79138;BME280;68544;45.566;10.238;2024-01-30T08:11:53;101718.06;;;7.41;54.82
79138;BME280;68544;45.566;10.238;2024-01-30T08:14:18;101729.38;;;7.45;54.89
79138;BME280;68544;45.566;10.238;2024-01-30T08:16:44;101738.31;;;7.45;55.04
79138;BME280;68544;45.566;10.238;2024-01-30T08:19:09;101715.88;;;7.24;55.15
79138;BME280;68544;45.566;10.238;2024-01-30T08:21:34;101723.69;;;7.38;54.82
79138;BME280;68544;45.566;10.238;2024-01-30T08:24:03;101728.66;;;7.54;54.93
79138;BME280;68544;45.566;10.238;2024-01-30T08:26:28;101720.13;;;7.80;54.12
79138;BME280;68544;45.566;10.238;2024-01-30T08:28:54;101728.09;;;8.14;52.95
79138;BME280;68544;45.566;10.238;2024-01-30T08:31:19;101726.53;;;8.32;52.26
79138;BME280;68544;45.566;10.238;2024-01-30T08:33:44;101735.34;;;8.34;51.94
79138;BME280;68544;45.566;10.238;2024-01-30T08:36:10;101733.94;;;8.81;51.15
79138;BME280;68544;45.566;10.238;2024-01-30T08:38:35;101741.69;;;8.74;51.21
79138;BME280;68544;45.566;10.238;2024-01-30T08:41:00;101741.44;;;9.07;50.26
79138;BME280;68544;45.566;10.238;2024-01-30T08:43:26;101740.41;;;9.29;50.32
79138;BME280;68544;45.566;10.238;2024-01-30T08:45:51;101742.69;;;9.33;49.82
79138;BME280;68544;45.566;10.238;2024-01-30T08:48:16;101738.72;;;9.37;50.21
79138;BME280;68544;45.566;10.238;2024-01-30T08:50:42;101736.44;;;9.33;50.49
79138;BME280;68544;45.566;10.238;2024-01-30T08:53:08;101750.63;;;9.35;50.25
79138;BME280;68544;45.566;10.238;2024-01-30T08:55:33;101743.72;;;9.51;49.83
79138;BME280;68544;45.566;10.238;2024-01-30T08:57:58;101744.13;;;9.47;49.87
79138;BME280;68544;45.566;10.238;2024-01-30T09:00:24;101738.94;;;9.65;49.55
79138;BME280;68544;45.566;10.238;2024-01-30T09:02:50;101743.66;;;9.91;48.42
79138;BME280;68544;45.566;10.238;2024-01-30T09:05:15;101744.81;;;9.98;48.23
79138;BME280;68544;45.566;10.238;2024-01-30T09:07:40;101743.78;;;9.99;48.35
79138;BME280;68544;45.566;10.238;2024-01-30T09:10:06;101750.34;;;10.06;48.15
79138;BME280;68544;45.566;10.238;2024-01-30T09:12:31;101755.50;;;10.19;48.40
79138;BME280;68544;45.566;10.238;2024-01-30T09:14:57;101751.94;;;10.47;47.91
79138;BME280;68544;45.566;10.238;2024-01-30T09:17:22;101749.09;;;10.29;48.13
79138;BME280;68544;45.566;10.238;2024-01-30T09:19:47;101748.16;;;10.86;47.04
79138;BME280;68544;45.566;10.238;2024-01-30T09:22:13;101748.91;;;11.16;46.45
79138;BME280;68544;45.566;10.238;2024-01-30T09:24:38;101758.75;;;11.44;45.88
79138;BME280;68544;45.566;10.238;2024-01-30T09:27:04;101756.44;;;11.76;45.91
79138;BME280;68544;45.566;10.238;2024-01-30T09:29:29;101761.50;;;11.88;45.18
79138;BME280;68544;45.566;10.238;2024-01-30T09:31:55;101758.94;;;12.22;44.17
79138;BME280;68544;45.566;10.238;2024-01-30T09:34:20;101765.78;;;12.09;43.94
79138;BME280;68544;45.566;10.238;2024-01-30T09:36:45;101756.25;;;12.22;44.28
79138;BME280;68544;45.566;10.238;2024-01-30T09:39:11;101758.94;;;12.22;43.56
79138;BME280;68544;45.566;10.238;2024-01-30T09:41:55;101757.09;;;12.40;42.45
79138;BME280;68544;45.566;10.238;2024-01-30T09:44:25;101762.34;;;12.24;42.75
79138;BME280;68544;45.566;10.238;2024-01-30T09:46:53;101759.13;;;12.38;42.09
79138;BME280;68544;45.566;10.238;2024-01-30T09:49:20;101755.66;;;12.72;41.70
79138;BME280;68544;45.566;10.238;2024-01-30T09:51:45;101763.41;;;13.10;41.08
79138;BME280;68544;45.566;10.238;2024-01-30T09:54:13;101762.88;;;13.40;39.64
79138;BME280;68544;45.566;10.238;2024-01-30T09:56:39;101774.16;;;13.61;39.18
79138;BME280;68544;45.566;10.238;2024-01-30T09:59:04;101773.50;;;13.67;38.87
79138;BME280;68544;45.566;10.238;2024-01-30T10:01:30;101767.31;;;13.99;38.20
79138;BME280;68544;45.566;10.238;2024-01-30T10:03:56;101764.19;;;14.68;36.40
79138;BME280;68544;45.566;10.238;2024-01-30T10:06:24;101762.38;;;15.23;34.94
79138;BME280;68544;45.566;10.238;2024-01-30T10:08:50;101761.44;;;15.94;33.01
79138;BME280;68544;45.566;10.238;2024-01-30T10:11:15;101770.38;;;16.78;32.16
79138;BME280;68544;45.566;10.238;2024-01-30T10:13:40;101757.09;;;18.98;27.95
79138;BME280;68544;45.566;10.238;2024-01-30T10:16:06;101755.34;;;21.89;24.11
79138;BME280;68544;45.566;10.238;2024-01-30T10:18:32;101756.41;;;24.03;20.77
79138;BME280;68544;45.566;10.238;2024-01-30T10:20:59;101754.78;;;24.96;20.07
79138;BME280;68544;45.566;10.238;2024-01-30T10:23:24;101764.56;;;25.85;18.58
79138;BME280;68544;45.566;10.238;2024-01-30T10:25:51;101754.22;;;26.65;18.11
79138;BME280;68544;45.566;10.238;2024-01-30T10:28:17;101741.56;;;27.19;17.46
79138;BME280;68544;45.566;10.238;2024-01-30T10:30:43;101746.06;;;28.01;16.28
79138;BME280;68544;45.566;10.238;2024-01-30T10:33:08;101748.50;;;28.73;15.37
79138;BME280;68544;45.566;10.238;2024-01-30T10:35:34;101754.16;;;26.15;17.52
79138;BME280;68544;45.566;10.238;2024-01-30T10:38:00;101745.59;;;23.84;19.98
79138;BME280;68544;45.566;10.238;2024-01-30T10:40:28;101744.81;;;21.66;22.83
79138;BME280;68544;45.566;10.238;2024-01-30T10:42:54;101728.94;;;20.59;24.46
79138;BME280;68544;45.566;10.238;2024-01-30T10:45:22;101739.41;;;19.55;25.45
79138;BME280;68544;45.566;10.238;2024-01-30T10:47:53;101741.03;;;19.50;25.71
79138;BME280;68544;45.566;10.238;2024-01-30T10:50:19;101733.09;;;19.61;26.24
79138;BME280;68544;45.566;10.238;2024-01-30T10:52:45;101733.03;;;21.46;23.94
79138;BME280;68544;45.566;10.238;2024-01-30T10:55:12;101724.09;;;25.56;19.66
79138;BME280;68544;45.566;10.238;2024-01-30T10:57:39;101709.69;;;28.30;16.95
79138;BME280;68544;45.566;10.238;2024-01-30T11:00:09;101710.91;;;30.26;14.90
79138;BME280;68544;45.566;10.238;2024-01-30T11:02:40;101719.06;;;30.42;14.08
79138;BME280;68544;45.566;10.238;2024-01-30T11:05:06;101706.06;;;31.67;13.12
79138;BME280;68544;45.566;10.238;2024-01-30T11:07:32;101695.09;;;32.68;12.13
79138;BME280;68544;45.566;10.238;2024-01-30T11:12:23;101699.16;;;33.15;11.56
79138;BME280;68544;45.566;10.238;2024-01-30T11:14:50;101697.13;;;34.29;11.07
79138;BME280;68544;45.566;10.238;2024-01-30T11:17:27;101688.66;;;33.02;11.50
79138;BME280;68544;45.566;10.238;2024-01-30T11:19:53;101700.13;;;33.29;11.36
79138;BME280;68544;45.566;10.238;2024-01-30T11:22:20;101700.63;;;34.58;10.48
79138;BME280;68544;45.566;10.238;2024-01-30T11:24:47;101702.00;;;34.04;10.32
79138;BME280;68544;45.566;10.238;2024-01-30T11:27:12;101688.75;;;34.61;9.56
79138;BME280;68544;45.566;10.238;2024-01-30T11:29:40;101687.38;;;35.63;8.95
79138;BME280;68544;45.566;10.238;2024-01-30T11:32:05;101688.44;;;34.94;9.32
79138;BME280;68544;45.566;10.238;2024-01-30T11:34:32;101681.72;;;35.09;9.26
79138;BME280;68544;45.566;10.238;2024-01-30T11:37:03;101665.09;;;34.67;9.43
79138;BME280;68544;45.566;10.238;2024-01-30T11:39:31;101673.59;;;33.87;9.03
79138;BME280;68544;45.566;10.238;2024-01-30T11:41:58;101665.31;;;34.19;9.05
79138;BME280;68544;45.566;10.238;2024-01-30T11:44:24;101657.19;;;34.69;8.36
79138;BME280;68544;45.566;10.238;2024-01-30T11:46:50;101649.91;;;35.27;7.97
79138;BME280;68544;45.566;10.238;2024-01-30T11:49:18;101649.59;;;34.56;8.30
79138;BME280;68544;45.566;10.238;2024-01-30T11:51:47;101649.75;;;35.87;7.37
79138;BME280;68544;45.566;10.238;2024-01-30T11:54:15;101635.13;;;35.49;7.36
79138;BME280;68544;45.566;10.238;2024-01-30T11:56:41;101628.09;;;36.89;6.14
79138;BME280;68544;45.566;10.238;2024-01-30T11:59:07;101630.25;;;36.04;6.56
79138;BME280;68544;45.566;10.238;2024-01-30T12:01:32;101622.03;;;35.94;6.22
79138;BME280;68544;45.566;10.238;2024-01-30T12:03:59;101616.56;;;35.75;5.88
79138;BME280;68544;45.566;10.238;2024-01-30T12:06:24;101615.94;;;36.36;5.60
79138;BME280;68544;45.566;10.238;2024-01-30T12:08:59;101607.63;;;35.59;5.83
79138;BME280;68544;45.566;10.238;2024-01-30T12:11:28;101590.09;;;35.27;6.07
79138;BME280;68544;45.566;10.238;2024-01-30T12:13:55;101590.75;;;36.09;4.78
79138;BME280;68544;45.566;10.238;2024-01-30T12:16:21;101590.38;;;34.39;6.37
79138;BME280;68544;45.566;10.238;2024-01-30T12:18:47;101578.19;;;34.75;6.32
79138;BME280;68544;45.566;10.238;2024-01-30T12:21:16;101581.75;;;35.85;5.62
79138;BME280;68544;45.566;10.238;2024-01-30T12:23:41;101574.03;;;34.86;5.96
79138;BME280;68544;45.566;10.238;2024-01-30T12:26:07;101568.56;;;34.17;6.24
79138;BME280;68544;45.566;10.238;2024-01-30T12:28:33;101557.38;;;34.90;6.08
79138;BME280;68544;45.566;10.238;2024-01-30T12:31:04;101555.81;;;34.57;6.26
79138;BME280;68544;45.566;10.238;2024-01-30T12:33:30;101544.44;;;34.35;6.84
79138;BME280;68544;45.566;10.238;2024-01-30T12:35:56;101541.00;;;34.05;6.95
79138;BME280;68544;45.566;10.238;2024-01-30T12:38:24;101529.00;;;34.18;7.11
79138;BME280;68544;45.566;10.238;2024-01-30T12:40:50;101551.59;;;33.34;9.24
79138;BME280;68544;45.566;10.238;2024-01-30T12:43:19;101547.31;;;25.71;16.74